This is the latest recevied weather packets stored in our database for station/object JI8TEY-15. If no packets are shown the sender has not sent any weather packets the latest 10 day(s).
| Time | Temp. | Humidity | Pressure | Rain* | Wind** | Luminosity | Snow |
|---|---|---|---|---|---|---|---|
| 1777575454 | 7.22° C | 92% | 1013 hPa | 0 mm | - | - | - |
| 1777571854 | 7.22° C | 93% | 1014 hPa | 0 mm | - | - | - |
| 1777570868 | 7.22° C | 93% | 1014 hPa | 0 mm | - | - | - |
| 1777568293 | 7.78° C | 91% | 1013 hPa | 0 mm | - | - | - |
| 1777564686 | 7.78° C | 89% | 1014 hPa | 0 mm | - | - | - |
| 1777561088 | 8.33° C | 82% | 1014 hPa | 0 mm | - | - | - |
| 1777557488 | 8.89° C | 67% | 1015 hPa | 0 mm | - | - | - |
| 1777553888 | 10° C | 58% | 1015 hPa | 0 mm | - | - | - |
| 1777550288 | 11.11° C | 57% | 1016 hPa | 0 mm | - | - | - |
| 1777546687 | 12.22° C | 57% | 1016 hPa | 0 mm | - | - | - |
| 1777543088 | 13.33° C | 56% | 1015 hPa | 0 mm | - | - | - |
| 1777539487 | 18.33° C | 54% | 1014 hPa | 0 mm | - | - | - |
| 1777535888 | 18.33° C | 54% | 1014 hPa | 0 mm | - | - | - |
| 1777532287 | 18.33° C | 54% | 1014 hPa | 0 mm | - | - | - |
| 1777528687 | 18.33° C | 54% | 1014 hPa | 0 mm | - | - | - |
| 1777525086 | 18.89° C | 54% | 1014 hPa | 0 mm | - | - | - |
| 1777521487 | 17.78° C | 55% | 1014 hPa | 0 mm | - | - | - |
| 1777517886 | 20° C | 54% | 1014 hPa | 0 mm | - | - | - |
| 1777514287 | 18.89° C | 54% | 1015 hPa | 0 mm | - | - | - |
| 1777510686 | 17.78° C | 55% | 1015 hPa | 0 mm | - | - | - |
| 1777507087 | 15° C | 56% | 1015 hPa | 0 mm | - | - | - |
| 1777503488 | 12.22° C | 57% | 1015 hPa | 0 mm | - | - | - |
| 1777499888 | 8.89° C | 79% | 1015 hPa | 0 mm | - | - | - |
| 1777496288 | 7.22° C | 89% | 1015 hPa | 0 mm | - | - | - |
| 1777492688 | 4.44° C | 91% | 1014 hPa | 0 mm | - | - | - |
* Rain latest hour (hover to see other rain measurements)
** Current wind speed in m/s (hover to see current wind gust speed)